Time;durP1;ratioP1;P1;durP2;ratioP2;P2;SDS_P1;SDS_P2;PMS_P1;PMS_P2;Temp;Humidity;BMP_temperature;BMP_pressure;BME280_temperature;BME280_humidity;BME280_pressure;Samples;Min_cycle;Max_cycle;Signal;HPM_P1;HPM_P2
2021/09/14 00:00:22;;;;;;;14.10;5.30;;;;;;;15.07;75.21;98657.59;4927425;28;20411;-81
2021/09/14 00:02:49;;;;;;;11.85;4.50;;;;;;;15.00;74.95;98659.28;4942947;28;20049;-78
2021/09/14 00:05:15;;;;;;;8.25;4.63;;;;;;;15.04;74.76;98663.25;4942646;28;20070;-77
2021/09/14 00:07:41;;;;;;;10.82;4.70;;;;;;;15.09;74.16;98668.06;4945668;28;20105;-79
2021/09/14 00:10:08;;;;;;;7.35;4.32;;;;;;;14.98;74.30;98663.97;4977870;28;20447;-80
2021/09/14 00:12:34;;;;;;;16.38;4.53;;;;;;;14.92;74.91;98672.63;4962005;28;20407;-83
2021/09/14 00:15:00;;;;;;;8.52;4.28;;;;;;;14.87;74.50;98665.16;4945976;28;20042;-82
2021/09/14 00:17:41;;;;;;;7.68;3.63;;;;;;;14.90;74.14;98667.47;4930968;28;20038;-86
2021/09/14 00:20:26;;;;;;;8.80;3.97;;;;;;;14.91;72.38;98663.78;4950921;28;20039;-87
2021/09/14 00:22:58;;;;;;;10.60;3.15;;;;;;;14.92;71.29;98657.47;4965036;28;20844;-82
2021/09/14 00:25:24;;;;;;;4.85;2.45;;;;;;;14.92;70.22;98660.13;4947779;28;20452;-82
2021/09/14 00:27:50;;;;;;;3.70;2.30;;;;;;;14.92;70.19;98665.47;4963332;28;20045;-86
2021/09/14 00:30:19;;;;;;;4.78;2.70;;;;;;;14.89;69.98;98665.78;4963963;28;20574;-85
2021/09/14 00:32:44;;;;;;;6.07;2.78;;;;;;;14.83;70.07;98667.31;4963289;28;20046;-81
2021/09/14 00:35:10;;;;;;;4.90;2.63;;;;;;;14.78;70.05;98671.47;4978867;28;20630;-81
2021/09/14 00:37:37;;;;;;;5.35;2.70;;;;;;;14.76;70.07;98676.97;4962891;28;20046;-80
2021/09/14 00:40:05;;;;;;;5.38;2.67;;;;;;;14.81;70.33;98679.16;4981591;28;20046;-80
2021/09/14 00:42:31;;;;;;;4.60;2.53;;;;;;;14.88;69.99;98696.09;4986335;28;20050;-79
2021/09/14 00:44:57;;;;;;;9.07;2.92;;;;;;;14.91;69.89;98692.28;4988072;28;20046;-82
2021/09/14 00:47:23;;;;;;;6.43;3.25;;;;;;;14.89;69.32;98705.72;4939669;28;20039;-82
2021/09/14 00:49:49;;;;;;;6.57;2.53;;;;;;;14.84;69.29;98689.44;4990696;28;20551;-81
2021/09/14 00:52:17;;;;;;;5.13;2.80;;;;;;;14.74;69.62;98702.13;4953207;28;20070;-83
2021/09/14 00:54:44;;;;;;;7.45;2.40;;;;;;;14.61;69.57;98705.28;4979434;28;20038;-82
2021/09/14 00:57:10;;;;;;;5.60;2.60;;;;;;;14.57;69.16;98715.41;4970045;28;20061;-80
2021/09/14 00:59:36;;;;;;;6.28;2.13;;;;;;;14.56;69.30;98719.91;4987648;28;20049;-82
2021/09/14 01:02:02;;;;;;;7.43;2.60;;;;;;;14.56;69.17;98724.41;4979518;28;20114;-80
2021/09/14 01:04:29;;;;;;;4.80;2.67;;;;;;;14.51;69.20;98726.72;4975013;28;20039;-79
2021/09/14 01:06:55;;;;;;;5.63;2.40;;;;;;;14.45;69.39;98719.41;4974870;28;20504;-82
2021/09/14 01:09:21;;;;;;;5.20;2.53;;;;;;;14.40;69.58;98720.75;4974279;28;20046;-80
2021/09/14 01:11:47;;;;;;;6.68;2.40;;;;;;;14.33;69.99;98726.88;4974092;28;20319;-82
2021/09/14 01:14:13;;;;;;;5.32;2.17;;;;;;;14.28;69.59;98732.72;4975685;28;20046;-80
2021/09/14 01:16:41;;;;;;;5.85;2.20;;;;;;;14.24;68.74;98739.34;4961159;28;20109;-82
2021/09/14 01:19:09;;;;;;;7.90;2.28;;;;;;;14.27;68.12;98741.69;4958352;28;20047;-81
2021/09/14 01:21:35;;;;;;;;;;;;;;;14.27;64.21;98741.69;4958271;28;20063;-83
2021/09/14 01:24:01;;;;;;;11.30;2.30;;;;;;;14.30;62.90;98751.16;4941744;28;19942;-81
2021/09/14 01:26:31;;;;;;;4.88;2.28;;;;;;;14.25;60.29;98749.00;4957140;28;20035;-81
2021/09/14 01:28:57;;;;;;;3.08;1.55;;;;;;;14.13;60.20;98750.31;4926394;28;20082;-81
2021/09/14 01:31:23;;;;;;;8.85;2.45;;;;;;;13.95;59.43;98745.97;4958518;28;20066;-80
2021/09/14 01:33:52;;;;;;;5.95;2.00;;;;;;;13.80;58.83;98744.94;4957702;28;20050;-80
2021/09/14 01:36:22;;;;;;;6.50;1.70;;;;;;;13.63;58.07;98741.41;4946912;28;20074;-81
2021/09/14 01:38:49;;;;;;;;;;;;;;;13.50;57.07;98750.66;4981785;28;20122;-79
2021/09/14 01:41:16;;;;;;;9.00;1.73;;;;;;;13.39;56.50;98753.59;4980940;28;19924;-80
2021/09/14 01:43:46;;;;;;;4.55;1.55;;;;;;;13.27;56.37;98758.31;4964153;28;20049;-79
2021/09/14 01:46:12;;;;;;;3.05;1.48;;;;;;;13.14;56.02;98765.91;4959336;28;20035;-81
2021/09/14 01:48:38;;;;;;;1.98;1.30;;;;;;;13.02;56.30;98768.81;4958176;28;20046;-80
2021/09/14 01:51:04;;;;;;;4.20;1.50;;;;;;;12.90;55.99;98768.25;4959843;28;20038;-79
2021/09/14 01:53:32;;;;;;;4.00;1.60;;;;;;;12.81;56.35;98771.00;4976700;28;20050;-81
2021/09/14 01:56:06;;;;;;;4.68;1.70;;;;;;;12.74;56.37;98776.91;4976628;28;20046;-82
2021/09/14 01:58:39;;;;;;;3.80;1.50;;;;;;;12.60;56.13;98766.88;4960409;28;20524;-80
2021/09/14 02:01:19;;;;;;;4.15;1.65;;;;;;;12.52;55.94;98775.56;4975899;28;20072;-83
2021/09/14 02:04:00;;;;;;;4.18;1.40;;;;;;;12.40;56.13;98785.59;4991745;28;20082;-81
2021/09/14 03:00:41;;;;;;;4.00;1.92;;;;;;;11.44;59.34;98813.34;4975540;28;20038;-81
2021/09/14 03:03:06;;;;;;;3.92;1.98;;;;;;;11.44;59.19;98805.41;4992722;28;20053;-81
2021/09/14 03:05:34;;;;;;;4.28;1.70;;;;;;;11.47;58.91;98820.16;4975622;28;20118;-81
2021/09/14 03:08:00;;;;;;;5.60;2.00;;;;;;;11.49;58.58;98813.72;4975468;28;20514;-81
2021/09/14 03:10:29;;;;;;;7.30;1.90;;;;;;;11.52;58.26;98817.06;4959409;28;20134;-83
2021/09/14 03:12:55;;;;;;;4.95;1.65;;;;;;;11.57;58.52;98814.81;4960159;28;20046;-83
2021/09/14 03:15:21;;;;;;;5.63;2.05;;;;;;;11.61;58.29;98822.34;4991923;28;20531;-80
2021/09/14 03:17:48;;;;;;;6.22;2.33;;;;;;;11.67;58.46;98818.25;4975636;28;20093;-83
2021/09/14 03:20:14;;;;;;;5.68;2.05;;;;;;;11.69;57.69;98818.94;4960445;28;20062;-81
2021/09/14 03:22:40;;;;;;;5.63;2.50;;;;;;;11.73;57.30;98820.31;4959688;28;20042;-82
2021/09/14 03:25:09;;;;;;;4.80;1.83;;;;;;;11.74;57.53;98819.34;4960857;28;20042;-87
2021/09/14 03:27:35;;;;;;;6.90;2.10;;;;;;;11.77;57.17;98826.97;4959274;28;20073;-81
2021/09/14 03:30:01;;;;;;;5.95;1.88;;;;;;;11.81;56.97;98817.78;4991109;28;20046;-81
2021/09/14 03:32:31;;;;;;;5.03;2.22;;;;;;;11.84;56.56;98826.41;4959684;28;20128;-80
2021/09/14 03:34:57;;;;;;;4.43;2.08;;;;;;;11.87;56.78;98826.13;4927204;28;20606;-81
2021/09/14 03:37:24;;;;;;;8.40;2.90;;;;;;;11.88;56.74;98827.78;4990807;28;20077;-82
2021/09/14 03:39:50;;;;;;;14.07;2.10;;;;;;;11.85;56.32;98830.72;4992662;28;20085;-83
2021/09/14 03:42:17;;;;;;;4.70;1.80;;;;;;;11.85;56.30;98843.97;4960170;28;20054;-80
2021/09/14 03:44:43;;;;;;;4.65;2.60;;;;;;;11.91;56.36;98844.22;4945251;28;20049;-81
2021/09/14 03:47:10;;;;;;;6.20;2.10;;;;;;;11.97;55.88;98842.81;4959133;28;20100;-79
2021/09/14 03:49:37;;;;;;;4.40;1.73;;;;;;;12.01;56.33;98843.34;4941394;28;20041;-80
2021/09/14 03:52:03;;;;;;;5.28;2.05;;;;;;;12.08;56.07;98849.75;4952059;28;20039;-82
2021/09/14 03:54:30;;;;;;;6.23;2.20;;;;;;;12.11;55.74;98844.97;4959666;28;20061;-80
2021/09/14 03:56:56;;;;;;;3.25;2.17;;;;;;;12.09;56.19;98852.22;4964869;28;20296;-80
2021/09/14 03:59:23;;;;;;;3.80;2.00;;;;;;;12.16;56.08;98856.94;4945545;28;20104;-83
2021/09/14 04:01:53;;;;;;;4.35;2.38;;;;;;;12.20;56.14;98858.31;4919210;28;20049;-84
2021/09/14 04:04:30;;;;;;;9.10;2.20;;;;;;;12.25;55.88;98862.19;4967801;28;20822;-81
2021/09/14 04:09:42;;;;;;;13.40;3.17;;;;;;;12.22;56.77;98859.81;4941775;28;20208;-77
2021/09/14 04:12:14;;;;;;;8.52;3.20;;;;;;;12.22;56.92;98862.47;4977107;28;20042;-79
2021/09/14 04:14:41;;;;;;;4.32;2.25;;;;;;;12.25;56.99;98861.34;4964384;28;20065;-79
2021/09/14 04:17:07;;;;;;;7.40;2.42;;;;;;;12.30;56.99;98864.41;4949621;28;20093;-78
2021/09/14 04:19:33;;;;;;;7.35;2.10;;;;;;;12.30;57.21;98867.88;4980301;28;20042;-79
2021/09/14 04:22:03;;;;;;;14.57;5.57;;;;;;;12.31;57.52;98871.34;4956928;28;20042;-80
2021/09/14 04:24:33;;;;;;;7.38;2.40;;;;;;;12.32;56.67;98878.31;4963381;28;20056;-82
2021/09/14 04:27:01;;;;;;;4.25;2.97;;;;;;;12.40;56.44;98886.38;4975842;28;20058;-81
2021/09/14 04:29:27;;;;;;;8.07;3.05;;;;;;;12.40;56.65;98881.06;4966043;28;20042;-81
2021/09/14 04:31:52;;;;;;;4.90;2.25;;;;;;;12.42;56.34;98884.41;4947384;28;20550;-81
2021/09/14 04:34:19;;;;;;;2.90;1.70;;;;;;;12.42;56.28;98879.13;4978906;28;20038;-78
2021/09/14 04:36:47;;;;;;;9.05;1.80;;;;;;;12.53;56.34;98885.16;4946598;28;20046;-82
2021/09/14 04:39:14;;;;;;;4.22;1.50;;;;;;;12.64;55.52;98892.09;4944171;28;20038;-81
2021/09/14 04:41:42;;;;;;;8.55;2.17;;;;;;;12.64;55.47;98879.63;4963946;28;20057;-81
2021/09/14 04:44:09;;;;;;;5.37;4.23;;;;;;;12.64;55.37;98898.22;4964385;28;20042;-81
2021/09/14 04:46:35;;;;;;;6.68;2.22;;;;;;;12.81;55.34;98893.06;4964212;28;20308;-81
2021/09/14 04:49:02;;;;;;;25.70;11.48;;;;;;;12.97;55.05;98882.56;4949220;28;20050;-80
2021/09/14 04:51:28;;;;;;;5.60;3.05;;;;;;;13.14;54.07;98885.38;4978381;28;20054;-83
2021/09/14 04:53:54;;;;;;;6.90;2.25;;;;;;;13.56;53.16;98882.03;4963095;28;20073;-84
2021/09/14 04:56:21;;;;;;;6.55;2.80;;;;;;;14.57;51.20;98875.09;4965820;28;20042;-81
2021/09/14 04:58:49;;;;;;;8.98;2.30;;;;;;;15.57;48.30;98879.38;4961704;28;20050;-84
2021/09/14 05:01:16;;;;;;;3.97;1.98;;;;;;;17.45;44.89;98878.44;4964089;28;20535;-80
2021/09/14 05:03:43;;;;;;;7.90;3.47;;;;;;;18.51;41.47;98885.38;4977824;28;20093;-81
2021/09/14 05:06:08;;;;;;;7.90;3.33;;;;;;;19.18;40.85;98886.03;4978485;28;20054;-83
2021/09/14 05:08:35;;;;;;;9.70;2.30;;;;;;;18.19;40.34;98882.13;4953501;28;20077;-80
2021/09/14 05:11:08;;;;;;;;;;;;;;;17.51;42.37;98889.41;4916395;29;20149;-81
2021/09/14 05:14:00;;;;;;;6.72;3.38;;;;;;;16.81;43.63;98890.31;4955320;28;20024;-87
2021/09/14 05:16:33;;;;;;;6.15;2.13;;;;;;;16.68;43.29;98898.09;4915772;29;20126;-85
2021/09/14 05:19:44;;;;;;;15.00;2.50;;;;;;;17.28;43.26;98901.84;4930341;29;20047;-84
2021/09/14 05:22:08;;;;;;;6.80;2.05;;;;;;;17.72;42.69;98904.72;4931401;29;20051;-87
2021/09/14 05:24:56;;;;;;;6.60;2.45;;;;;;;18.30;41.17;98898.75;4950276;28;20055;-85
2021/09/14 05:27:24;;;;;;;5.35;2.33;;;;;;;18.62;40.89;98897.47;4929339;29;20049;-85
2021/09/14 05:29:50;;;;;;;11.13;2.50;;;;;;;19.39;40.04;98892.41;4942658;29;20051;-83
2021/09/14 05:32:17;;;;;;;4.82;2.03;;;;;;;20.88;37.34;98887.50;4938014;29;20146;-82
2021/09/14 05:34:45;;;;;;;7.57;3.15;;;;;;;20.52;37.64;98885.97;4909358;29;20056;-85
2021/09/14 05:37:16;;;;;;;8.98;3.53;;;;;;;20.18;38.13;98885.84;4923808;29;20534;-85
2021/09/14 05:39:51;;;;;;;8.35;2.13;;;;;;;19.49;38.99;98884.84;4931695;29;20079;-83
2021/09/14 05:42:18;;;;;;;5.18;2.42;;;;;;;19.20;40.10;98886.69;4936513;28;20125;-84
2021/09/14 05:44:47;;;;;;;10.82;2.10;;;;;;;19.06;39.88;98892.94;4950008;28;20137;-81
2021/09/14 05:47:17;;;;;;;7.18;1.77;;;;;;;18.71;40.71;98895.47;4965150;28;20455;-86
2021/09/14 05:49:44;;;;;;;7.47;2.33;;;;;;;19.00;40.46;98891.03;4983762;28;20042;-83
2021/09/14 05:52:23;;;;;;;9.93;2.45;;;;;;;19.16;40.15;98888.09;4978285;28;20079;-86
2021/09/14 05:55:20;;;;;;;7.15;2.28;;;;;;;19.07;40.54;98894.63;4970710;28;20034;-84
2021/09/14 05:57:47;;;;;;;9.57;2.08;;;;;;;19.21;40.75;98896.38;4968013;28;20045;-84
2021/09/14 06:00:16;;;;;;;7.60;2.40;;;;;;;18.89;41.03;98897.69;4918153;28;20046;-85
2021/09/14 06:02:47;;;;;;;6.47;2.35;;;;;;;18.85;41.15;98897.25;4905534;29;20545;-82
2021/09/14 06:05:15;;;;;;;9.75;3.13;;;;;;;18.83;41.75;98904.69;4887960;29;20075;-81
2021/09/14 06:07:43;;;;;;;13.30;6.00;;;;;;;19.78;40.14;98896.34;4886472;29;20060;-80
2021/09/14 06:10:10;;;;;;;7.00;2.53;;;;;;;20.65;38.39;98895.94;4872916;29;20052;-83
2021/09/14 06:12:46;;;;;;;56.80;25.80;;;;;;;20.51;38.04;98901.25;4886940;29;20047;-83
2021/09/14 06:15:13;;;;;;;9.85;4.07;;;;;;;19.96;39.17;98903.09;4886915;29;20052;-86
2021/09/14 06:17:41;;;;;;;6.30;2.47;;;;;;;19.52;39.45;98899.72;4866201;29;20053;-86
2021/09/14 06:20:10;;;;;;;;;;;;;;;19.30;40.71;98904.28;4850616;29;20064;-84
2021/09/14 06:22:40;;;;;;;10.90;2.60;;;;;;;20.05;39.54;98904.59;4863678;29;19952;-82
2021/09/14 06:28:04;;;;;;;7.78;2.53;;;;;;;19.82;39.45;98886.88;4885279;29;20057;-81
2021/09/14 06:30:32;;;;;;;6.53;2.53;;;;;;;20.91;38.50;98888.94;4880003;29;20037;-81
2021/09/14 06:33:02;;;;;;;9.05;3.00;;;;;;;21.29;37.64;98896.41;4849558;29;20061;-83
2021/09/14 06:35:30;;;;;;;7.60;2.23;;;;;;;21.08;36.73;98905.53;4880292;29;20041;-81
2021/09/14 06:38:05;;;;;;;9.68;2.50;;;;;;;20.37;37.28;98904.91;4876341;29;20072;-81
2021/09/14 06:40:32;;;;;;;4.88;2.17;;;;;;;20.20;37.99;98891.84;4869562;29;20044;-82
2021/09/14 06:42:59;;;;;;;5.60;1.92;;;;;;;20.65;37.59;98882.50;4900931;29;20187;-82
2021/09/14 06:45:42;;;;;;;5.60;2.25;;;;;;;21.36;36.55;98889.19;4901685;29;20058;-83
2021/09/14 06:48:20;;;;;;;5.57;1.88;;;;;;;21.94;34.50;98875.03;4935474;28;20488;-83
2021/09/14 06:50:53;;;;;;;4.65;1.90;;;;;;;22.11;33.39;98878.03;4963960;28;20042;-82
2021/09/14 06:53:28;;;;;;;4.15;1.73;;;;;;;21.79;33.20;98891.44;4947189;28;20051;-82
2021/09/14 06:55:55;;;;;;;4.60;2.22;;;;;;;22.09;33.22;98892.78;4957717;28;20047;-82
2021/09/14 06:58:24;;;;;;;3.10;1.65;;;;;;;22.47;32.05;98881.25;4927529;28;20053;-82
2021/09/14 07:00:53;;;;;;;10.88;2.30;;;;;;;22.22;31.64;98884.63;4927921;28;20141;-84
2021/09/14 07:03:19;;;;;;;9.45;2.45;;;;;;;22.37;31.63;98886.22;4944981;28;20050;-83
2021/09/14 07:05:45;;;;;;;8.07;1.95;;;;;;;22.52;30.70;98884.09;4959995;28;20050;-83
2021/09/14 07:08:13;;;;;;;5.70;2.10;;;;;;;22.21;31.42;98893.75;4924466;28;20081;-83
2021/09/14 07:10:39;;;;;;;;;;;;;;;21.55;32.02;98889.38;4964117;28;20384;-86
2021/09/14 07:13:05;;;;;;;10.05;3.58;;;;;;;20.94;32.59;98893.94;4945457;28;19941;-83
2021/09/14 07:15:32;;;;;;;5.77;2.27;;;;;;;20.51;33.70;98895.88;4962306;28;20084;-84
2021/09/14 07:17:58;;;;;;;11.77;3.60;;;;;;;20.43;34.03;98898.75;4965164;28;20372;-82
2021/09/14 07:20:32;;;;;;;10.48;3.25;;;;;;;21.16;33.14;98914.22;4965114;28;20046;-81
2021/09/14 07:22:58;;;;;;;9.60;2.35;;;;;;;20.16;34.28;98901.34;4965456;28;20054;-84
2021/09/14 07:25:25;;;;;;;8.27;3.17;;;;;;;19.59;35.52;98903.28;4963557;28;20076;-82
2021/09/14 07:27:51;;;;;;;12.13;2.40;;;;;;;19.27;36.46;98897.47;4935558;28;20050;-83
2021/09/14 07:30:23;;;;;;;10.68;3.55;;;;;;;19.16;36.74;98898.81;4935433;28;20647;-80
2021/09/14 07:32:54;;;;;;;8.90;2.45;;;;;;;19.51;35.08;98906.91;4932484;28;20050;-80
2021/09/14 07:35:26;;;;;;;10.50;1.90;;;;;;;20.78;33.05;98908.59;4930170;28;20104;-81
2021/09/14 07:37:57;;;;;;;9.00;3.28;;;;;;;21.47;30.92;98904.69;4934915;28;20052;-82
2021/09/14 07:40:26;;;;;;;15.18;2.92;;;;;;;21.71;30.81;98907.78;4936219;28;20057;-85
2021/09/14 07:42:57;;;;;;;9.65;4.10;;;;;;;22.40;29.90;98913.59;4952574;28;20053;-81
2021/09/14 07:45:28;;;;;;;17.27;4.03;;;;;;;22.33;29.98;98917.31;4952146;28;20046;-84
2021/09/14 07:47:56;;;;;;;;;;;;;;;21.87;30.10;98919.13;4964742;28;20050;-84
2021/09/14 07:50:25;;;;;;;6.07;2.53;;;;;;;22.16;29.79;98925.06;4967905;28;20016;-85
2021/09/14 07:52:55;;;;;;;12.00;3.78;;;;;;;22.63;28.30;98928.44;4985388;28;20046;-81
2021/09/14 07:55:23;;;;;;;7.32;2.90;;;;;;;24.16;27.19;98912.03;4969720;28;20046;-85
2021/09/14 07:57:51;;;;;;;13.32;3.92;;;;;;;24.46;26.08;98916.63;4971167;28;20539;-83
2021/09/14 08:00:18;;;;;;;4.47;1.70;;;;;;;24.48;26.28;98917.22;4916034;29;20063;-82
2021/09/14 08:03:00;;;;;;;7.03;2.08;;;;;;;24.97;25.73;98924.47;4930777;29;20132;-80
2021/09/14 08:05:29;;;;;;;6.75;2.03;;;;;;;25.89;24.23;98912.31;4900265;29;20051;-82
2021/09/14 08:07:55;;;;;;;12.68;5.85;;;;;;;26.04;23.42;98916.44;4927570;29;20143;-83
2021/09/14 08:10:21;;;;;;;9.10;3.30;;;;;;;25.20;24.03;98918.28;4924343;29;20525;-85
2021/09/14 08:12:48;;;;;;;17.17;5.50;;;;;;;25.82;23.65;98909.75;4927701;29;20058;-84
2021/09/14 08:15:19;;;;;;;8.90;4.57;;;;;;;26.34;23.19;98918.16;4913029;29;20051;-84
2021/09/14 08:17:46;;;;;;;8.52;4.15;;;;;;;25.83;23.40;98924.94;4913491;29;20087;-83
2021/09/14 08:20:20;;;;;;;9.40;3.75;;;;;;;25.02;24.32;98914.63;4926268;29;20074;-84
2021/09/14 08:22:47;;;;;;;7.20;2.17;;;;;;;24.30;24.08;98917.25;4911752;29;20055;-81
2021/09/14 08:25:13;;;;;;;10.88;1.90;;;;;;;23.51;25.36;98917.84;4930407;29;20588;-84
2021/09/14 08:27:41;;;;;;;10.30;2.53;;;;;;;22.76;26.29;98922.94;4920131;29;20118;-81
2021/09/14 08:30:10;;;;;;;5.47;1.70;;;;;;;22.56;27.14;98914.16;4893697;29;20060;-82
2021/09/14 08:33:03;;;;;;;8.73;1.98;;;;;;;22.67;26.47;98921.56;4928060;29;20044;-82
2021/09/14 08:35:32;;;;;;;7.10;1.80;;;;;;;22.37;26.97;98918.53;4879281;29;20064;-84
2021/09/14 08:38:32;;;;;;;8.98;2.20;;;;;;;21.52;27.44;98935.50;4880457;29;20068;-81
2021/09/14 08:41:20;;;;;;;4.88;1.40;;;;;;;20.77;27.92;98921.22;4888516;29;20049;-82
2021/09/14 08:43:48;;;;;;;8.40;1.88;;;;;;;20.47;28.69;98915.28;4874090;29;20050;-84
2021/09/14 08:46:20;;;;;;;7.53;2.08;;;;;;;20.32;28.56;98923.50;4872896;29;20053;-84
2021/09/14 08:48:50;;;;;;;5.18;2.42;;;;;;;19.84;29.62;98916.25;4851938;29;20069;-81
2021/09/14 08:55:23;;;;;;;10.50;3.37;;;;;;;19.27;31.02;98929.63;4856118;29;20086;-84
2021/09/14 08:57:50;;;;;;;5.82;1.98;;;;;;;19.00;30.85;98932.06;4852643;29;20566;-81
2021/09/14 09:00:31;;;;;;;7.97;1.58;;;;;;;18.74;30.45;98924.56;4837447;29;20117;-84
2021/09/14 09:03:00;;;;;;;7.65;2.70;;;;;;;18.01;30.33;98921.84;4836315;29;20098;-82
2021/09/14 09:05:33;;;;;;;9.88;3.63;;;;;;;17.79;30.97;98925.25;4819970;29;20062;-83
2021/09/14 09:08:24;;;;;;;20.45;7.53;;;;;;;17.69;31.67;98923.84;4829181;29;20182;-83
2021/09/14 09:15:25;;;;;;;7.82;2.08;;;;;;;17.20;33.40;98920.59;4894880;29;20153;-87
2021/09/14 09:18:21;;;;;;;;;;;;;;;17.26;33.82;98913.72;4786257;30;20063;-85
2021/09/14 09:21:03;;;;;;;8.90;1.70;;;;;;;17.21;34.61;98930.28;4749188;30;19959;-84
2021/09/14 11:08:45;;;;;;;4.70;1.40;;;;;;;16.24;35.47;98958.22;6210625;22;20332;-84
2021/09/14 11:12:02;;;;;;;8.63;1.98;;;;;;;16.58;35.30;98949.03;6154218;23;20351;-85
2021/09/14 11:14:56;;;;;;;10.07;2.45;;;;;;;16.76;35.19;98956.78;6127896;23;20025;-83
2021/09/14 11:17:59;;;;;;;8.18;3.20;;;;;;;17.10;35.65;98963.59;6103536;23;20017;-84
2021/09/14 11:20:38;;;;;;;8.15;2.35;;;;;;;17.23;34.62;98963.00;6057689;23;20095;-81
2021/09/14 11:23:40;;;;;;;11.50;4.43;;;;;;;17.48;33.89;98961.97;6030336;23;20020;-82
2021/09/14 11:27:13;;;;;;;7.18;1.45;;;;;;;17.70;32.96;98954.94;5975866;24;20039;-85
2021/09/14 11:30:27;;;;;;;3.35;1.42;;;;;;;18.11;31.79;98951.84;5977717;24;20396;-81
2021/09/14 11:33:48;;;;;;;5.07;1.55;;;;;;;18.35;31.87;98939.16;5932937;24;20025;-83
2021/09/14 11:36:22;;;;;;;9.35;1.30;;;;;;;17.80;32.49;98947.44;5893900;24;20382;-83
2021/09/14 11:40:04;;;;;;;6.53;1.60;;;;;;;17.85;33.03;98944.22;5923545;24;20052;-82
2021/09/14 11:43:00;;;;;;;11.65;1.60;;;;;;;17.77;32.16;98942.50;5901565;24;20445;-84
2021/09/14 11:45:33;;;;;;;8.75;1.35;;;;;;;17.93;31.80;98938.78;5864860;24;20498;-83
2021/09/14 11:48:02;;;;;;;6.82;1.00;;;;;;;17.40;32.05;98949.50;5868019;24;20357;-83
2021/09/14 11:50:59;;;;;;;7.20;2.13;;;;;;;16.81;32.92;98953.59;5867800;24;20030;-81
2021/09/14 11:53:31;;;;;;;6.38;1.65;;;;;;;16.37;34.18;98948.81;5911887;24;20405;-83
2021/09/14 11:56:15;;;;;;;4.22;1.48;;;;;;;16.28;34.49;98938.19;5910319;24;20066;-82
2021/09/14 12:01:59;;;;;;;6.80;1.48;;;;;;;15.81;36.05;98945.16;5872990;24;20354;-83
2021/09/14 12:04:34;;;;;;;8.63;1.98;;;;;;;15.66;36.51;98945.03;5887661;24;20370;-83
2021/09/14 12:07:10;;;;;;;6.60;1.50;;;;;;;15.98;36.82;98929.97;5879850;24;20022;-85
2021/09/14 12:10:23;;;;;;;5.78;1.65;;;;;;;16.20;36.23;98932.91;5876936;24;20398;-83
2021/09/14 12:13:16;;;;;;;5.63;2.10;;;;;;;16.39;35.76;98933.47;5855962;24;20456;-83
2021/09/14 12:16:37;;;;;;;6.95;1.85;;;;;;;16.40;35.14;98914.63;5852263;24;20026;-86
2021/09/14 12:19:25;;;;;;;9.70;1.77;;;;;;;16.03;35.19;98912.63;5871816;24;20367;-86
2021/09/14 12:22:00;;;;;;;4.93;1.63;;;;;;;15.85;35.36;98916.34;5878443;24;20146;-86
2021/09/14 12:24:44;;;;;;;8.43;2.22;;;;;;;15.64;35.71;98917.69;5826118;24;20355;-83
2021/09/14 12:27:52;;;;;;;8.48;2.08;;;;;;;15.53;35.95;98918.06;5819120;24;20035;-84
2021/09/14 12:30:24;;;;;;;7.65;1.67;;;;;;;15.43;36.55;98928.06;5803545;24;20389;-86
2021/09/14 12:32:54;;;;;;;4.95;2.00;;;;;;;15.43;36.93;98930.72;5781695;24;20421;-85
2021/09/14 12:35:25;;;;;;;9.60;3.10;;;;;;;15.33;37.07;98929.06;5790472;24;20029;-86
2021/09/14 12:38:04;;;;;;;11.60;2.20;;;;;;;15.42;37.11;98939.72;5801897;24;20030;-82
2021/09/14 12:40:36;;;;;;;;;;;;;;;15.50;37.58;98939.69;5801178;24;20155;-84
2021/09/14 12:43:08;;;;;;;6.65;2.28;;;;;;;15.51;37.54;98925.38;5776773;24;19917;-84
2021/09/14 12:45:43;;;;;;;3.92;2.03;;;;;;;15.51;37.13;98944.03;5798163;24;20042;-89
2021/09/14 12:48:34;;;;;;;9.95;2.35;;;;;;;15.31;36.39;98941.69;5729453;24;20081;-87
2021/09/14 12:51:24;;;;;;;9.38;1.73;;;;;;;15.19;36.49;98937.75;5813698;24;20435;-83
2021/09/14 12:54:22;;;;;;;8.75;2.35;;;;;;;15.21;36.46;98946.38;5775979;24;20027;-83
2021/09/14 12:56:56;;;;;;;14.93;2.45;;;;;;;15.30;36.67;98934.75;5775209;24;20023;-86
2021/09/14 12:59:42;;;;;;;11.20;2.90;;;;;;;15.28;36.00;98947.38;5753107;24;20115;-87
2021/09/14 13:02:40;;;;;;;10.75;2.60;;;;;;;15.20;36.64;98944.72;5773827;24;20438;-83
2021/09/14 13:05:55;;;;;;;12.80;3.35;;;;;;;15.03;37.52;98950.03;5781977;24;20387;-84
2021/09/14 13:08:41;;;;;;;10.07;3.50;;;;;;;14.81;37.27;98940.84;5801101;24;20415;-83
2021/09/14 13:11:14;;;;;;;7.38;2.03;;;;;;;14.78;37.57;98951.00;5804226;24;20022;-82
2021/09/14 13:17:13;;;;;;;8.80;1.67;;;;;;;14.65;36.92;98951.47;5883481;24;20454;-83
2021/09/14 13:20:04;;;;;;;12.40;2.63;;;;;;;14.53;37.35;98957.06;5903690;24;20030;-84
2021/09/14 13:23:02;;;;;;;6.35;1.60;;;;;;;14.48;36.97;98945.22;5883365;24;20021;-85
2021/09/14 13:25:43;;;;;;;7.50;1.90;;;;;;;14.51;36.64;98955.56;5905883;24;20338;-88
2021/09/14 13:28:12;;;;;;;10.38;2.05;;;;;;;14.64;36.59;98953.28;5898214;24;20072;-82
2021/09/14 13:31:34;;;;;;;11.07;1.23;;;;;;;14.73;36.19;98956.81;5944401;24;20104;-84
2021/09/14 13:34:14;;;;;;;6.97;1.63;;;;;;;14.70;36.33;98950.00;5912105;24;20397;-83
2021/09/14 13:36:52;;;;;;;7.53;1.38;;;;;;;14.54;36.73;98961.41;5886142;24;20025;-85
2021/09/14 13:39:23;;;;;;;7.70;1.50;;;;;;;14.47;36.49;98959.56;5884545;24;20082;-85
2021/09/14 13:42:17;;;;;;;11.38;2.05;;;;;;;14.30;36.88;98948.81;5845333;24;20331;-84
2021/09/14 13:49:21;;;;;;;13.15;1.73;;;;;;;14.12;36.39;98945.41;5929703;24;20062;-87
2021/09/14 13:52:24;;;;;;;6.10;1.70;;;;;;;14.13;35.88;98947.09;5937847;24;20389;-87
2021/09/14 13:55:27;;;;;;;10.55;1.80;;;;;;;14.20;36.76;98948.13;5934145;24;20033;-84
2021/09/14 13:57:57;;;;;;;8.85;1.85;;;;;;;14.31;35.87;98939.84;5911152;24;20361;-83
2021/09/14 14:00:49;;;;;;;10.02;1.63;;;;;;;14.17;36.22;98953.78;5878396;24;20022;-85
2021/09/14 14:03:54;;;;;;;;;;;;;;;13.96;36.58;98935.56;5879579;24;20374;-82
2021/09/14 14:06:51;;;;;;;4.47;1.50;;;;;;;13.85;36.82;98934.00;5890981;24;20256;-83
2021/09/14 14:09:33;;;;;;;9.13;1.25;;;;;;;13.59;37.34;98945.47;5889617;24;20428;-83
2021/09/14 14:12:27;;;;;;;8.73;1.90;;;;;;;13.42;38.22;98940.06;5864014;24;20473;-87
2021/09/14 14:15:04;;;;;;;7.93;1.27;;;;;;;13.27;38.11;98936.22;5868460;24;20354;-84
2021/09/14 14:17:34;;;;;;;5.97;1.08;;;;;;;13.31;37.77;98950.03;5904828;24;20025;-83
2021/09/14 14:20:11;;;;;;;11.02;2.05;;;;;;;13.22;38.10;98936.72;5889597;24;20021;-84
2021/09/14 14:22:53;;;;;;;4.90;1.65;;;;;;;13.18;38.18;98937.16;5894786;24;20027;-83
2021/09/14 14:25:23;;;;;;;7.60;1.58;;;;;;;13.11;39.06;98937.78;5931663;24;20368;-81
2021/09/14 14:27:57;;;;;;;8.45;2.38;;;;;;;13.01;38.93;98933.53;5907889;24;20457;-83
2021/09/14 14:30:49;;;;;;;7.43;2.00;;;;;;;12.93;39.10;98937.81;5906826;24;20394;-86
2021/09/14 14:33:38;;;;;;;7.13;2.30;;;;;;;12.87;39.43;98943.72;5931753;24;20363;-84
2021/09/14 14:36:12;;;;;;;9.63;2.42;;;;;;;12.83;40.06;98938.84;5956562;24;20395;-84
2021/09/14 14:38:42;;;;;;;15.25;8.50;;;;;;;12.90;39.80;98939.94;5908457;24;20473;-85
2021/09/14 14:41:13;;;;;;;14.43;4.93;;;;;;;13.02;39.86;98935.22;5930588;24;20020;-85
2021/09/14 14:43:47;;;;;;;19.15;5.97;;;;;;;13.12;40.22;98938.59;5939268;24;20491;-83
2021/09/14 14:46:17;;;;;;;9.93;3.20;;;;;;;13.21;40.33;98928.91;5941834;24;20036;-82
2021/09/14 14:48:49;;;;;;;11.43;4.90;;;;;;;13.15;40.58;98935.66;5983738;23;20016;-85
2021/09/14 14:51:31;;;;;;;12.63;3.40;;;;;;;12.96;41.44;98934.00;5993240;23;20024;-83
2021/09/14 14:54:05;;;;;;;7.93;3.22;;;;;;;12.79;41.96;98939.16;5974300;23;20542;-84
2021/09/14 14:56:43;;;;;;;14.85;4.40;;;;;;;12.67;42.95;98939.53;6042032;23;20042;-83
2021/09/14 14:59:19;;;;;;;11.25;4.57;;;;;;;12.57;43.06;98935.13;6038156;23;20084;-81
2021/09/14 15:01:49;;;;;;;12.07;3.80;;;;;;;12.45;43.08;98939.78;6033219;23;20021;-82
2021/09/14 15:04:32;;;;;;;21.70;4.22;;;;;;;12.44;43.39;98940.78;6057548;23;20041;-84
2021/09/14 15:08:08;;;;;;;6.18;2.33;;;;;;;12.52;43.19;98939.19;6075981;23;20023;-82
2021/09/14 15:11:13;;;;;;;5.97;2.78;;;;;;;12.57;43.15;98942.25;6067346;23;20354;-83
2021/09/14 15:13:43;;;;;;;22.85;10.02;;;;;;;12.59;43.20;98942.94;6104666;23;20022;-80